sensor_id;sensor_type;location;lat;lon;timestamp;pressure;altitude;pressure_sealevel;temperature;humidity
60874;BME280;46715;40.642;-7.920;2023-11-18T00:00:13;74956.56;;;-146.45;100.00
60874;BME280;46715;40.642;-7.920;2023-11-18T00:02:14;74954.56;;;-146.45;100.00
60874;BME280;46715;40.642;-7.920;2023-11-18T00:04:15;74956.56;;;-146.45;100.00
60874;BME280;46715;40.642;-7.920;2023-11-18T00:06:16;74960.53;;;-146.45;100.00
60874;BME280;46715;40.642;-7.920;2023-11-18T00:08:17;74958.56;;;-146.45;100.00
60874;BME280;46715;40.642;-7.920;2023-11-18T00:10:17;74958.56;;;-146.45;100.00
60874;BME280;46715;40.642;-7.920;2023-11-18T00:12:18;74948.59;;;-146.45;100.00
60874;BME280;46715;40.642;-7.920;2023-11-18T00:14:19;74950.59;;;-146.45;100.00
60874;BME280;46715;40.642;-7.920;2023-11-18T00:16:24;74950.59;;;-146.45;100.00
60874;BME280;46715;40.642;-7.920;2023-11-18T00:18:27;74950.59;;;-146.45;100.00
60874;BME280;46715;40.642;-7.920;2023-11-18T00:20:27;74948.59;;;-146.45;100.00
60874;BME280;46715;40.642;-7.920;2023-11-18T00:22:29;74952.59;;;-146.45;100.00
60874;BME280;46715;40.642;-7.920;2023-11-18T00:24:29;74954.56;;;-146.45;100.00
60874;BME280;46715;40.642;-7.920;2023-11-18T00:26:30;74958.56;;;-146.45;100.00
60874;BME280;46715;40.642;-7.920;2023-11-18T00:28:33;74956.56;;;-146.45;100.00
60874;BME280;46715;40.642;-7.920;2023-11-18T00:30:34;74954.56;;;-146.45;100.00
60874;BME280;46715;40.642;-7.920;2023-11-18T00:32:35;74946.63;;;-146.45;100.00
60874;BME280;46715;40.642;-7.920;2023-11-18T00:34:35;74938.66;;;-146.45;100.00
60874;BME280;46715;40.642;-7.920;2023-11-18T00:36:36;74942.66;;;-146.45;100.00
60874;BME280;46715;40.642;-7.920;2023-11-18T00:38:37;74940.66;;;-146.45;100.00
60874;BME280;46715;40.642;-7.920;2023-11-18T00:40:39;74944.63;;;-146.45;100.00
60874;BME280;46715;40.642;-7.920;2023-11-18T00:42:40;74952.59;;;-146.45;100.00
60874;BME280;46715;40.642;-7.920;2023-11-18T00:44:41;74952.59;;;-146.45;100.00
60874;BME280;46715;40.642;-7.920;2023-11-18T00:46:42;74948.59;;;-146.45;100.00
60874;BME280;46715;40.642;-7.920;2023-11-18T00:48:43;74946.63;;;-146.45;100.00
60874;BME280;46715;40.642;-7.920;2023-11-18T00:50:45;74952.59;;;-146.45;100.00
60874;BME280;46715;40.642;-7.920;2023-11-18T00:52:46;74948.59;;;-146.45;100.00
60874;BME280;46715;40.642;-7.920;2023-11-18T00:54:48;74938.66;;;-146.45;100.00
60874;BME280;46715;40.642;-7.920;2023-11-18T00:56:49;74942.66;;;-146.45;100.00
60874;BME280;46715;40.642;-7.920;2023-11-18T00:58:50;74948.59;;;-146.45;100.00
60874;BME280;46715;40.642;-7.920;2023-11-18T01:00:51;74950.59;;;-146.45;100.00
60874;BME280;46715;40.642;-7.920;2023-11-18T01:02:53;74940.66;;;-146.45;100.00
60874;BME280;46715;40.642;-7.920;2023-11-18T01:04:55;74932.69;;;-146.45;100.00
60874;BME280;46715;40.642;-7.920;2023-11-18T01:06:55;74930.72;;;-146.45;100.00
60874;BME280;46715;40.642;-7.920;2023-11-18T01:08:58;74932.69;;;-146.45;100.00
60874;BME280;46715;40.642;-7.920;2023-11-18T01:10:59;74930.72;;;-146.45;100.00
60874;BME280;46715;40.642;-7.920;2023-11-18T01:12:59;74928.72;;;-146.45;100.00
60874;BME280;46715;40.642;-7.920;2023-11-18T01:15:01;74928.72;;;-146.45;100.00
60874;BME280;46715;40.642;-7.920;2023-11-18T01:17:04;74932.69;;;-146.45;100.00
60874;BME280;46715;40.642;-7.920;2023-11-18T01:19:05;74930.72;;;-146.45;100.00
60874;BME280;46715;40.642;-7.920;2023-11-18T01:21:09;74932.69;;;-146.45;100.00
60874;BME280;46715;40.642;-7.920;2023-11-18T01:23:10;74928.72;;;-146.45;100.00
60874;BME280;46715;40.642;-7.920;2023-11-18T01:25:11;74922.75;;;-146.45;100.00
60874;BME280;46715;40.642;-7.920;2023-11-18T01:27:11;74910.81;;;-146.45;100.00
60874;BME280;46715;40.642;-7.920;2023-11-18T01:29:13;74900.88;;;-146.45;100.00
60874;BME280;46715;40.642;-7.920;2023-11-18T01:31:14;74898.88;;;-146.45;100.00
60874;BME280;46715;40.642;-7.920;2023-11-18T01:33:14;74892.94;;;-146.45;100.00
60874;BME280;46715;40.642;-7.920;2023-11-18T01:35:15;74894.91;;;-146.45;100.00
60874;BME280;46715;40.642;-7.920;2023-11-18T01:37:17;74894.91;;;-146.45;100.00
60874;BME280;46715;40.642;-7.920;2023-11-18T01:39:18;74900.88;;;-146.45;100.00
60874;BME280;46715;40.642;-7.920;2023-11-18T01:41:19;74896.91;;;-146.45;100.00
60874;BME280;46715;40.642;-7.920;2023-11-18T01:43:20;74906.84;;;-146.45;100.00
60874;BME280;46715;40.642;-7.920;2023-11-18T01:45:22;74908.84;;;-146.45;100.00
60874;BME280;46715;40.642;-7.920;2023-11-18T01:47:23;74912.81;;;-146.45;100.00
60874;BME280;46715;40.642;-7.920;2023-11-18T01:49:26;74918.78;;;-146.45;100.00
60874;BME280;46715;40.642;-7.920;2023-11-18T01:51:30;74918.78;;;-146.45;100.00
60874;BME280;46715;40.642;-7.920;2023-11-18T01:53:31;74916.78;;;-146.45;100.00
60874;BME280;46715;40.642;-7.920;2023-11-18T01:55:33;74910.81;;;-146.45;100.00
60874;BME280;46715;40.642;-7.920;2023-11-18T01:57:34;74906.84;;;-146.45;100.00
60874;BME280;46715;40.642;-7.920;2023-11-18T01:59:36;74900.88;;;-146.45;100.00
60874;BME280;46715;40.642;-7.920;2023-11-18T02:01:38;74908.84;;;-146.45;100.00
60874;BME280;46715;40.642;-7.920;2023-11-18T02:03:40;74910.81;;;-146.45;100.00
60874;BME280;46715;40.642;-7.920;2023-11-18T02:05:43;74902.88;;;-146.45;100.00
60874;BME280;46715;40.642;-7.920;2023-11-18T02:07:44;74902.88;;;-146.45;100.00
60874;BME280;46715;40.642;-7.920;2023-11-18T02:09:46;74892.94;;;-146.45;100.00
60874;BME280;46715;40.642;-7.920;2023-11-18T02:13:52;74890.94;;;-146.45;100.00
60874;BME280;46715;40.642;-7.920;2023-11-18T02:15:56;74892.94;;;-146.45;100.00
60874;BME280;46715;40.642;-7.920;2023-11-18T02:17:57;74890.94;;;-146.45;100.00
60874;BME280;46715;40.642;-7.920;2023-11-18T02:19:59;74886.97;;;-146.45;100.00
60874;BME280;46715;40.642;-7.920;2023-11-18T02:22:01;74882.97;;;-146.45;100.00
60874;BME280;46715;40.642;-7.920;2023-11-18T02:24:03;74877.00;;;-146.45;100.00
60874;BME280;46715;40.642;-7.920;2023-11-18T02:26:05;74871.03;;;-146.45;100.00
60874;BME280;46715;40.642;-7.920;2023-11-18T02:28:06;74879.00;;;-146.45;100.00
60874;BME280;46715;40.642;-7.920;2023-11-18T02:30:07;74886.97;;;-146.45;100.00
60874;BME280;46715;40.642;-7.920;2023-11-18T02:34:21;74900.88;;;-146.45;100.00
60874;BME280;46715;40.642;-7.920;2023-11-18T02:36:29;74906.84;;;-146.45;100.00
60874;BME280;46715;40.642;-7.920;2023-11-18T02:38:42;74916.78;;;-146.45;100.00
60874;BME280;46715;40.642;-7.920;2023-11-18T02:40:46;74920.78;;;-146.45;100.00
60874;BME280;46715;40.642;-7.920;2023-11-18T02:42:50;74924.75;;;-146.45;100.00
60874;BME280;46715;40.642;-7.920;2023-11-18T02:44:53;74926.72;;;-146.45;100.00
60874;BME280;46715;40.642;-7.920;2023-11-18T02:46:59;74918.78;;;-146.45;100.00
60874;BME280;46715;40.642;-7.920;2023-11-18T02:49:00;74904.84;;;-146.45;100.00
60874;BME280;46715;40.642;-7.920;2023-11-18T02:51:01;74890.94;;;-146.45;100.00
60874;BME280;46715;40.642;-7.920;2023-11-18T02:53:02;74882.97;;;-146.45;100.00
60874;BME280;46715;40.642;-7.920;2023-11-18T02:55:05;74888.94;;;-146.45;100.00
60874;BME280;46715;40.642;-7.920;2023-11-18T02:57:07;74894.91;;;-146.45;100.00
60874;BME280;46715;40.642;-7.920;2023-11-18T02:59:08;74902.88;;;-146.45;100.00
60874;BME280;46715;40.642;-7.920;2023-11-18T03:01:11;74920.78;;;-146.45;100.00
60874;BME280;46715;40.642;-7.920;2023-11-18T03:03:12;74932.69;;;-146.45;100.00
60874;BME280;46715;40.642;-7.920;2023-11-18T03:05:14;74942.66;;;-146.45;100.00
60874;BME280;46715;40.642;-7.920;2023-11-18T03:07:15;74950.59;;;-146.45;100.00
60874;BME280;46715;40.642;-7.920;2023-11-18T03:09:16;74954.56;;;-146.45;100.00
60874;BME280;46715;40.642;-7.920;2023-11-18T03:11:20;74962.53;;;-146.45;100.00
60874;BME280;46715;40.642;-7.920;2023-11-18T03:13:21;74966.50;;;-146.45;100.00
60874;BME280;46715;40.642;-7.920;2023-11-18T03:15:23;74970.50;;;-146.45;100.00
60874;BME280;46715;40.642;-7.920;2023-11-18T03:17:24;74974.47;;;-146.45;100.00
60874;BME280;46715;40.642;-7.920;2023-11-18T03:19:31;74966.50;;;-146.45;100.00
60874;BME280;46715;40.642;-7.920;2023-11-18T03:21:31;74964.53;;;-146.45;100.00
60874;BME280;46715;40.642;-7.920;2023-11-18T03:23:32;74958.56;;;-146.45;100.00
60874;BME280;46715;40.642;-7.920;2023-11-18T03:25:33;74958.56;;;-146.45;100.00
60874;BME280;46715;40.642;-7.920;2023-11-18T03:27:34;74962.53;;;-146.45;100.00
60874;BME280;46715;40.642;-7.920;2023-11-18T03:29:34;74962.53;;;-146.45;100.00
60874;BME280;46715;40.642;-7.920;2023-11-18T03:31:36;74966.50;;;-146.45;100.00
60874;BME280;46715;40.642;-7.920;2023-11-18T03:33:37;74960.53;;;-146.45;100.00
60874;BME280;46715;40.642;-7.920;2023-11-18T03:35:37;74960.53;;;-146.45;100.00
60874;BME280;46715;40.642;-7.920;2023-11-18T03:37:39;74942.66;;;-146.45;100.00
60874;BME280;46715;40.642;-7.920;2023-11-18T03:39:41;74940.66;;;-146.45;100.00
60874;BME280;46715;40.642;-7.920;2023-11-18T03:41:42;74930.72;;;-146.45;100.00
60874;BME280;46715;40.642;-7.920;2023-11-18T03:43:44;74926.72;;;-146.45;100.00
60874;BME280;46715;40.642;-7.920;2023-11-18T03:45:48;74926.72;;;-146.45;100.00
60874;BME280;46715;40.642;-7.920;2023-11-18T03:47:49;74930.72;;;-146.45;100.00
60874;BME280;46715;40.642;-7.920;2023-11-18T03:49:51;74928.72;;;-146.45;100.00
60874;BME280;46715;40.642;-7.920;2023-11-18T03:51:52;74932.69;;;-146.45;100.00
60874;BME280;46715;40.642;-7.920;2023-11-18T03:53:52;74928.72;;;-146.45;100.00
60874;BME280;46715;40.642;-7.920;2023-11-18T03:55:53;74924.75;;;-146.45;100.00
60874;BME280;46715;40.642;-7.920;2023-11-18T03:57:54;74914.81;;;-146.45;100.00
60874;BME280;46715;40.642;-7.920;2023-11-18T03:59:54;74908.84;;;-146.45;100.00
60874;BME280;46715;40.642;-7.920;2023-11-18T04:01:55;74904.84;;;-146.45;100.00
60874;BME280;46715;40.642;-7.920;2023-11-18T04:03:56;74900.88;;;-146.45;100.00
60874;BME280;46715;40.642;-7.920;2023-11-18T04:05:56;74908.84;;;-146.45;100.00
60874;BME280;46715;40.642;-7.920;2023-11-18T04:07:57;74916.78;;;-146.45;100.00
60874;BME280;46715;40.642;-7.920;2023-11-18T04:09:58;74920.78;;;-146.45;100.00
60874;BME280;46715;40.642;-7.920;2023-11-18T04:12:00;74920.78;;;-146.45;100.00
60874;BME280;46715;40.642;-7.920;2023-11-18T04:14:01;74918.78;;;-146.45;100.00
60874;BME280;46715;40.642;-7.920;2023-11-18T04:16:04;74922.75;;;-146.45;100.00
60874;BME280;46715;40.642;-7.920;2023-11-18T04:18:06;74914.81;;;-146.45;100.00
60874;BME280;46715;40.642;-7.920;2023-11-18T04:20:09;74910.81;;;-146.45;100.00
60874;BME280;46715;40.642;-7.920;2023-11-18T04:22:11;74910.81;;;-146.45;100.00
60874;BME280;46715;40.642;-7.920;2023-11-18T04:24:12;74904.84;;;-146.45;100.00
60874;BME280;46715;40.642;-7.920;2023-11-18T04:26:13;74902.88;;;-146.45;100.00
60874;BME280;46715;40.642;-7.920;2023-11-18T04:28:13;74896.91;;;-146.45;100.00
60874;BME280;46715;40.642;-7.920;2023-11-18T04:30:14;74892.94;;;-146.45;100.00
60874;BME280;46715;40.642;-7.920;2023-11-18T04:32:15;74888.94;;;-146.45;100.00
60874;BME280;46715;40.642;-7.920;2023-11-18T04:34:16;74884.97;;;-146.45;100.00
60874;BME280;46715;40.642;-7.920;2023-11-18T04:36:17;74879.00;;;-146.45;100.00
60874;BME280;46715;40.642;-7.920;2023-11-18T04:38:19;74879.00;;;-146.45;100.00
60874;BME280;46715;40.642;-7.920;2023-11-18T04:40:20;74881.00;;;-146.45;100.00
60874;BME280;46715;40.642;-7.920;2023-11-18T04:42:23;74884.97;;;-146.45;100.00
60874;BME280;46715;40.642;-7.920;2023-11-18T04:44:24;74888.94;;;-146.45;100.00
60874;BME280;46715;40.642;-7.920;2023-11-18T04:46:24;74900.88;;;-146.45;100.00
60874;BME280;46715;40.642;-7.920;2023-11-18T04:48:25;74910.81;;;-146.45;100.00
60874;BME280;46715;40.642;-7.920;2023-11-18T04:50:26;74920.78;;;-146.45;100.00
60874;BME280;46715;40.642;-7.920;2023-11-18T04:52:26;74914.81;;;-146.45;100.00
60874;BME280;46715;40.642;-7.920;2023-11-18T04:54:27;74912.81;;;-146.45;100.00
60874;BME280;46715;40.642;-7.920;2023-11-18T04:56:28;74912.81;;;-146.45;100.00
60874;BME280;46715;40.642;-7.920;2023-11-18T04:58:29;74928.72;;;-146.45;100.00
60874;BME280;46715;40.642;-7.920;2023-11-18T05:00:30;74938.66;;;-146.45;100.00
60874;BME280;46715;40.642;-7.920;2023-11-18T05:02:30;74948.59;;;-146.45;100.00
60874;BME280;46715;40.642;-7.920;2023-11-18T05:04:31;74960.53;;;-146.45;100.00
60874;BME280;46715;40.642;-7.920;2023-11-18T05:06:31;74976.44;;;-146.45;100.00
60874;BME280;46715;40.642;-7.920;2023-11-18T05:08:32;74988.38;;;-146.45;100.00
60874;BME280;46715;40.642;-7.920;2023-11-18T05:10:34;74992.38;;;-146.45;100.00
60874;BME280;46715;40.642;-7.920;2023-11-18T05:12:38;75002.31;;;-146.45;100.00
60874;BME280;46715;40.642;-7.920;2023-11-18T05:14:40;75012.25;;;-146.45;100.00
60874;BME280;46715;40.642;-7.920;2023-11-18T05:16:40;75014.25;;;-146.45;100.00
60874;BME280;46715;40.642;-7.920;2023-11-18T05:18:42;75022.19;;;-146.45;100.00
60874;BME280;46715;40.642;-7.920;2023-11-18T05:20:44;75026.16;;;-146.45;100.00
60874;BME280;46715;40.642;-7.920;2023-11-18T05:22:44;75030.16;;;-146.45;100.00
60874;BME280;46715;40.642;-7.920;2023-11-18T05:24:46;75030.16;;;-146.45;100.00
60874;BME280;46715;40.642;-7.920;2023-11-18T05:26:48;75026.16;;;-146.45;100.00
60874;BME280;46715;40.642;-7.920;2023-11-18T05:28:49;75020.22;;;-146.45;100.00
60874;BME280;46715;40.642;-7.920;2023-11-18T05:30:50;75028.16;;;-146.45;100.00
60874;BME280;46715;40.642;-7.920;2023-11-18T05:32:51;75022.19;;;-146.45;100.00
60874;BME280;46715;40.642;-7.920;2023-11-18T05:34:53;75016.22;;;-146.45;100.00
60874;BME280;46715;40.642;-7.920;2023-11-18T05:37:04;75014.25;;;-146.45;100.00
60874;BME280;46715;40.642;-7.920;2023-11-18T05:39:05;75016.22;;;-146.45;100.00
60874;BME280;46715;40.642;-7.920;2023-11-18T05:41:05;75020.22;;;-146.45;100.00
60874;BME280;46715;40.642;-7.920;2023-11-18T05:43:16;75022.19;;;-146.45;100.00
60874;BME280;46715;40.642;-7.920;2023-11-18T05:45:20;75020.22;;;-146.45;100.00
60874;BME280;46715;40.642;-7.920;2023-11-18T05:47:32;75022.19;;;-146.45;100.00
60874;BME280;46715;40.642;-7.920;2023-11-18T05:49:34;75016.22;;;-146.45;100.00
60874;BME280;46715;40.642;-7.920;2023-11-18T05:51:35;75026.16;;;-146.45;100.00
60874;BME280;46715;40.642;-7.920;2023-11-18T05:53:42;75034.13;;;-146.45;100.00
60874;BME280;46715;40.642;-7.920;2023-11-18T05:55:46;75036.13;;;-146.45;100.00
60874;BME280;46715;40.642;-7.920;2023-11-18T05:57:47;75034.13;;;-146.45;100.00
60874;BME280;46715;40.642;-7.920;2023-11-18T05:59:47;75030.16;;;-146.45;100.00
60874;BME280;46715;40.642;-7.920;2023-11-18T06:01:49;75032.13;;;-146.45;100.00
60874;BME280;46715;40.642;-7.920;2023-11-18T06:03:49;75038.09;;;-146.45;100.00
60874;BME280;46715;40.642;-7.920;2023-11-18T06:05:51;75034.13;;;-146.45;100.00
60874;BME280;46715;40.642;-7.920;2023-11-18T06:07:52;75028.16;;;-146.45;100.00
60874;BME280;46715;40.642;-7.920;2023-11-18T06:09:52;75022.19;;;-146.45;100.00
60874;BME280;46715;40.642;-7.920;2023-11-18T06:11:53;75014.25;;;-146.45;100.00
60874;BME280;46715;40.642;-7.920;2023-11-18T06:13:55;75012.25;;;-146.45;100.00
60874;BME280;46715;40.642;-7.920;2023-11-18T06:15:55;75010.25;;;-146.45;100.00
60874;BME280;46715;40.642;-7.920;2023-11-18T06:17:56;75006.28;;;-146.45;100.00
60874;BME280;46715;40.642;-7.920;2023-11-18T06:19:58;75020.22;;;-146.45;100.00
60874;BME280;46715;40.642;-7.920;2023-11-18T06:21:59;75022.19;;;-146.45;100.00
60874;BME280;46715;40.642;-7.920;2023-11-18T06:24:01;75032.13;;;-146.45;100.00
60874;BME280;46715;40.642;-7.920;2023-11-18T06:26:04;75036.13;;;-146.45;100.00
60874;BME280;46715;40.642;-7.920;2023-11-18T06:28:05;75048.06;;;-146.45;100.00
60874;BME280;46715;40.642;-7.920;2023-11-18T06:30:09;75054.00;;;-146.45;100.00
60874;BME280;46715;40.642;-7.920;2023-11-18T06:32:12;75059.97;;;-146.45;100.00
60874;BME280;46715;40.642;-7.920;2023-11-18T06:34:12;75071.91;;;-146.45;100.00
60874;BME280;46715;40.642;-7.920;2023-11-18T06:38:14;75077.88;;;-146.45;100.00
60874;BME280;46715;40.642;-7.920;2023-11-18T06:40:15;75083.84;;;-146.45;100.00
60874;BME280;46715;40.642;-7.920;2023-11-18T06:42:19;75089.81;;;-146.45;100.00
60874;BME280;46715;40.642;-7.920;2023-11-18T06:44:19;75091.81;;;-146.45;100.00
60874;BME280;46715;40.642;-7.920;2023-11-18T06:46:25;75097.78;;;-146.45;100.00
60874;BME280;46715;40.642;-7.920;2023-11-18T06:48:26;75097.78;;;-146.45;100.00
60874;BME280;46715;40.642;-7.920;2023-11-18T06:50:27;75085.84;;;-146.45;100.00
60874;BME280;46715;40.642;-7.920;2023-11-18T06:52:27;75085.84;;;-146.45;100.00
60874;BME280;46715;40.642;-7.920;2023-11-18T06:54:29;75083.84;;;-146.45;100.00
60874;BME280;46715;40.642;-7.920;2023-11-18T06:56:30;75085.84;;;-146.45;100.00
60874;BME280;46715;40.642;-7.920;2023-11-18T06:58:31;75085.84;;;-146.45;100.00
60874;BME280;46715;40.642;-7.920;2023-11-18T07:00:32;75081.84;;;-146.45;100.00
60874;BME280;46715;40.642;-7.920;2023-11-18T07:02:33;75091.81;;;-146.45;100.00
60874;BME280;46715;40.642;-7.920;2023-11-18T07:04:33;75095.78;;;-146.45;100.00
60874;BME280;46715;40.642;-7.920;2023-11-18T07:06:34;75097.78;;;-146.45;100.00
60874;BME280;46715;40.642;-7.920;2023-11-18T07:08:38;75097.78;;;-146.45;100.00
60874;BME280;46715;40.642;-7.920;2023-11-18T07:10:40;75097.78;;;-146.45;100.00
60874;BME280;46715;40.642;-7.920;2023-11-18T07:12:41;75103.72;;;-146.45;100.00
60874;BME280;46715;40.642;-7.920;2023-11-18T07:14:41;75103.72;;;-146.45;100.00
60874;BME280;46715;40.642;-7.920;2023-11-18T07:16:42;75107.72;;;-146.45;100.00
60874;BME280;46715;40.642;-7.920;2023-11-18T07:18:44;75107.72;;;-146.45;100.00
60874;BME280;46715;40.642;-7.920;2023-11-18T07:20:45;75111.69;;;-146.45;100.00
60874;BME280;46715;40.642;-7.920;2023-11-18T07:22:45;75113.69;;;-146.45;100.00
60874;BME280;46715;40.642;-7.920;2023-11-18T07:24:46;75109.69;;;-146.45;100.00
60874;BME280;46715;40.642;-7.920;2023-11-18T07:26:47;75103.72;;;-146.45;100.00
60874;BME280;46715;40.642;-7.920;2023-11-18T07:28:49;75105.72;;;-146.45;100.00
60874;BME280;46715;40.642;-7.920;2023-11-18T07:30:50;75109.69;;;-146.45;100.00
60874;BME280;46715;40.642;-7.920;2023-11-18T07:32:51;75111.69;;;-146.45;100.00
60874;BME280;46715;40.642;-7.920;2023-11-18T07:34:52;75111.69;;;-146.45;100.00
60874;BME280;46715;40.642;-7.920;2023-11-18T07:36:52;75103.72;;;-146.45;100.00
60874;BME280;46715;40.642;-7.920;2023-11-18T07:38:56;75065.94;;;-146.45;100.00
60874;BME280;46715;40.642;-7.920;2023-11-18T07:40:56;75018.22;;;-146.45;100.00
60874;BME280;46715;40.642;-7.920;2023-11-18T07:42:57;74990.38;;;-146.45;100.00
60874;BME280;46715;40.642;-7.920;2023-11-18T07:45:02;74966.50;;;-146.45;100.00
60874;BME280;46715;40.642;-7.920;2023-11-18T07:47:04;74962.53;;;-146.45;100.00
60874;BME280;46715;40.642;-7.920;2023-11-18T07:49:08;74962.53;;;-146.45;100.00
60874;BME280;46715;40.642;-7.920;2023-11-18T07:51:09;74958.56;;;-146.45;100.00
60874;BME280;46715;40.642;-7.920;2023-11-18T07:53:11;74956.56;;;-146.45;100.00
60874;BME280;46715;40.642;-7.920;2023-11-18T07:55:12;74944.63;;;-146.45;100.00
60874;BME280;46715;40.642;-7.920;2023-11-18T07:57:13;74952.59;;;-146.45;100.00
60874;BME280;46715;40.642;-7.920;2023-11-18T07:59:14;74934.69;;;-146.45;100.00
60874;BME280;46715;40.642;-7.920;2023-11-18T08:01:17;74869.06;;;-146.45;100.00
60874;BME280;46715;40.642;-7.920;2023-11-18T08:03:18;74771.63;;;-146.45;100.00
60874;BME280;46715;40.642;-7.920;2023-11-18T08:05:20;74690.09;;;-146.45;100.00
60874;BME280;46715;40.642;-7.920;2023-11-18T08:07:23;74618.50;;;-146.45;100.00
60874;BME280;46715;40.642;-7.920;2023-11-18T08:09:25;74562.81;;;-146.45;99.93
60874;BME280;46715;40.642;-7.920;2023-11-18T08:11:26;74511.09;;;-146.45;97.03
60874;BME280;46715;40.642;-7.920;2023-11-18T08:13:26;74437.53;;;-146.45;95.35
60874;BME280;46715;40.642;-7.920;2023-11-18T08:15:27;74346.06;;;-146.45;92.85
60874;BME280;46715;40.642;-7.920;2023-11-18T08:17:29;74264.53;;;-146.45;88.77
60874;BME280;46715;40.642;-7.920;2023-11-18T08:19:31;74175.06;;;-146.45;85.01
60874;BME280;46715;40.642;-7.920;2023-11-18T08:21:31;74105.47;;;-146.45;77.68
60874;BME280;46715;40.642;-7.920;2023-11-18T08:23:32;74047.81;;;-146.45;75.21
60874;BME280;46715;40.642;-7.920;2023-11-18T08:25:34;73986.16;;;-146.45;72.10
60874;BME280;46715;40.642;-7.920;2023-11-18T08:27:36;73980.19;;;-146.45;69.91
60874;BME280;46715;40.642;-7.920;2023-11-18T08:29:37;74037.84;;;-146.45;71.16
60874;BME280;46715;40.642;-7.920;2023-11-18T08:31:39;74079.63;;;-146.45;74.07
60874;BME280;46715;40.642;-7.920;2023-11-18T08:33:40;74099.50;;;-146.45;73.26
60874;BME280;46715;40.642;-7.920;2023-11-18T08:35:40;74053.75;;;-146.45;72.59
60874;BME280;46715;40.642;-7.920;2023-11-18T08:37:42;74047.81;;;-146.45;71.26
60874;BME280;46715;40.642;-7.920;2023-11-18T08:39:46;74014.00;;;-146.45;70.63
60874;BME280;46715;40.642;-7.920;2023-11-18T08:41:48;73932.47;;;-146.45;67.79
60874;BME280;46715;40.642;-7.920;2023-11-18T08:43:51;73831.09;;;-146.45;63.80
60874;BME280;46715;40.642;-7.920;2023-11-18T08:45:52;73755.53;;;-146.45;59.45
60874;BME280;46715;40.642;-7.920;2023-11-18T08:47:57;73672.03;;;-146.45;56.86
60874;BME280;46715;40.642;-7.920;2023-11-18T08:49:58;73606.41;;;-146.45;54.76
60874;BME280;46715;40.642;-7.920;2023-11-18T08:52:09;73548.75;;;-146.45;52.94
60874;BME280;46715;40.642;-7.920;2023-11-18T08:54:13;73518.94;;;-146.45;49.91
60874;BME280;46715;40.642;-7.920;2023-11-18T08:56:23;73528.88;;;-146.45;48.59
60874;BME280;46715;40.642;-7.920;2023-11-18T08:58:35;73509.00;;;-146.45;48.65
60874;BME280;46715;40.642;-7.920;2023-11-18T09:00:37;73514.97;;;-146.45;49.23
60874;BME280;46715;40.642;-7.920;2023-11-18T09:02:47;73610.41;;;-146.45;50.65
60874;BME280;46715;40.642;-7.920;2023-11-18T09:04:48;73813.19;;;-146.45;52.28
60874;BME280;46715;40.642;-7.920;2023-11-18T09:06:50;73962.31;;;-146.45;56.84
60874;BME280;46715;40.642;-7.920;2023-11-18T09:08:56;74073.66;;;-146.45;61.32
60874;BME280;46715;40.642;-7.920;2023-11-18T09:10:58;74175.06;;;-146.45;65.76
60874;BME280;46715;40.642;-7.920;2023-11-18T09:13:00;74244.66;;;-146.45;69.72
60874;BME280;46715;40.642;-7.920;2023-11-18T09:15:00;74294.34;;;-146.45;73.23
60874;BME280;46715;40.642;-7.920;2023-11-18T09:17:04;74318.22;;;-146.45;76.36
60874;BME280;46715;40.642;-7.920;2023-11-18T09:19:08;74334.13;;;-146.45;79.23
60874;BME280;46715;40.642;-7.920;2023-11-18T09:21:10;74356.00;;;-146.45;81.19
60874;BME280;46715;40.642;-7.920;2023-11-18T09:23:14;74375.88;;;-146.45;82.30
60874;BME280;46715;40.642;-7.920;2023-11-18T09:25:22;74389.81;;;-146.45;83.13
60874;BME280;46715;40.642;-7.920;2023-11-18T09:27:23;74399.75;;;-146.45;83.52
60874;BME280;46715;40.642;-7.920;2023-11-18T09:30:01;74401.75;;;-146.45;82.51
60874;BME280;46715;40.642;-7.920;2023-11-18T09:35:32;74383.84;;;-146.45;84.32
60874;BME280;46715;40.642;-7.920;2023-11-18T09:37:35;74373.91;;;-146.45;84.46
60874;BME280;46715;40.642;-7.920;2023-11-18T09:39:41;74371.91;;;-146.45;84.30
60874;BME280;46715;40.642;-7.920;2023-11-18T09:41:46;74363.97;;;-146.45;84.25
60874;BME280;46715;40.642;-7.920;2023-11-18T09:43:49;74358.00;;;-146.45;83.85
60874;BME280;46715;40.642;-7.920;2023-11-18T09:45:56;74358.00;;;-146.45;81.39
60874;BME280;46715;40.642;-7.920;2023-11-18T09:47:58;74344.06;;;-146.45;82.26
60874;BME280;46715;40.642;-7.920;2023-11-18T09:50:02;74334.13;;;-146.45;81.89
60874;BME280;46715;40.642;-7.920;2023-11-18T09:52:06;74330.16;;;-146.45;81.27
60874;BME280;46715;40.642;-7.920;2023-11-18T09:54:39;74318.22;;;-146.45;80.93
60874;BME280;46715;40.642;-7.920;2023-11-18T09:56:55;74308.28;;;-146.45;79.84
60874;BME280;46715;40.642;-7.920;2023-11-18T10:01:21;74290.38;;;-146.45;75.66
60874;BME280;46715;40.642;-7.920;2023-11-18T10:03:23;74282.44;;;-146.45;75.21
60874;BME280;46715;40.642;-7.920;2023-11-18T10:05:26;74268.50;;;-146.45;74.14
60874;BME280;46715;40.642;-7.920;2023-11-18T10:07:30;74264.53;;;-146.45;72.58
60874;BME280;46715;40.642;-7.920;2023-11-18T10:09:33;74252.59;;;-146.45;72.42
60874;BME280;46715;40.642;-7.920;2023-11-18T10:11:47;74238.69;;;-146.45;71.09
60874;BME280;46715;40.642;-7.920;2023-11-18T10:13:51;74220.78;;;-146.45;67.82
60874;BME280;46715;40.642;-7.920;2023-11-18T10:15:52;74218.81;;;-146.45;65.79
60874;BME280;46715;40.642;-7.920;2023-11-18T10:17:53;74212.84;;;-146.45;66.06
60874;BME280;46715;40.642;-7.920;2023-11-18T10:19:59;74208.84;;;-146.45;65.80
60874;BME280;46715;40.642;-7.920;2023-11-18T10:22:00;74200.91;;;-146.45;66.08
60874;BME280;46715;40.642;-7.920;2023-11-18T10:24:01;74187.00;;;-146.45;64.96
60874;BME280;46715;40.642;-7.920;2023-11-18T10:26:03;74181.03;;;-146.45;64.22
60874;BME280;46715;40.642;-7.920;2023-11-18T10:28:04;74175.06;;;-146.45;62.91